createdAt,value
2019-02-16T00:00:50.942Z,211.73
2019-02-16T00:03:20.086Z,209.07
2019-02-16T00:05:49.241Z,207.93
2019-02-16T00:08:18.431Z,209.53
2019-02-16T00:10:47.553Z,209.20
2019-02-16T00:13:16.788Z,217.50
2019-02-16T00:15:45.994Z,207.73
2019-02-16T00:18:15.150Z,204.17
2019-02-16T00:20:44.289Z,187.93
2019-02-16T00:23:13.481Z,196.17
2019-02-16T00:25:42.646Z,207.07
2019-02-16T00:28:11.818Z,205.87
2019-02-16T00:30:41.034Z,204.03
2019-02-16T00:33:10.190Z,203.73
2019-02-16T00:35:39.364Z,196.50
2019-02-16T00:38:08.578Z,207.37
2019-02-16T00:40:37.710Z,198.50
2019-02-16T00:43:06.844Z,202.00
2019-02-16T00:45:36.004Z,204.83
2019-02-16T00:48:05.222Z,203.20
2019-02-16T00:50:34.446Z,215.70
2019-02-16T00:53:03.605Z,200.10
2019-02-16T00:55:32.738Z,194.53
2019-02-16T00:58:01.965Z,192.97
2019-02-16T01:00:31.121Z,181.50
2019-02-16T01:03:00.337Z,194.80
2019-02-16T01:05:29.483Z,191.87
2019-02-16T01:07:58.681Z,182.30
2019-02-16T01:10:27.845Z,174.93
2019-02-16T01:12:57.042Z,194.73
2019-02-16T01:15:26.194Z,182.67
2019-02-16T01:17:55.337Z,183.23
2019-02-16T01:20:24.477Z,180.67
2019-02-16T01:22:53.631Z,171.00
2019-02-16T01:25:22.844Z,174.40
2019-02-16T01:27:52.030Z,197.33
2019-02-16T01:30:21.198Z,215.33
2019-02-16T01:32:50.362Z,211.10
2019-02-16T01:35:19.533Z,201.40
2019-02-16T01:37:48.702Z,199.33
2019-02-16T01:40:17.862Z,195.50
2019-02-16T01:42:47.079Z,189.73
2019-02-16T01:45:16.338Z,180.77
2019-02-16T01:47:45.509Z,165.50
2019-02-16T01:50:14.766Z,170.60
2019-02-16T01:52:43.907Z,161.10
2019-02-16T01:55:13.165Z,133.63
2019-02-16T01:57:42.314Z,149.27
2019-02-16T02:00:11.790Z,138.63
2019-02-16T02:02:40.937Z,138.53
2019-02-16T02:05:10.134Z,138.40
2019-02-16T02:07:39.546Z,137.03
2019-02-16T02:10:09.650Z,138.33
2019-02-16T02:12:38.837Z,144.40
2019-02-16T02:15:08.781Z,134.27
2019-02-16T02:17:37.941Z,140.27
2019-02-16T02:20:07.429Z,138.93
2019-02-16T02:22:36.597Z,136.17
2019-02-16T02:25:07.153Z,129.80
2019-02-16T02:27:36.342Z,128.90
2019-02-16T02:30:06.083Z,141.90
2019-02-16T02:32:35.298Z,138.53
2019-02-16T02:35:04.900Z,136.30
2019-02-16T02:37:34.067Z,133.03
2019-02-16T02:40:03.226Z,127.60
2019-02-16T02:42:32.381Z,142.40
2019-02-16T02:45:01.617Z,140.80
2019-02-16T02:47:31.139Z,142.57
2019-02-16T02:50:00.274Z,122.53
2019-02-16T02:52:29.425Z,116.20
2019-02-16T02:54:58.654Z,122.00
2019-02-16T02:57:27.838Z,122.40
2019-02-16T02:59:56.971Z,123.90
2019-02-16T03:02:26.208Z,121.40
2019-02-16T03:04:55.466Z,119.13
2019-02-16T03:07:24.669Z,117.90
2019-02-16T03:09:53.873Z,113.17
2019-02-16T03:12:23.050Z,105.70
2019-02-16T03:14:52.217Z,110.90
2019-02-16T03:17:21.454Z,113.87
2019-02-16T03:19:50.637Z,122.17
2019-02-16T03:22:19.811Z,126.87
2019-02-16T03:24:48.951Z,132.33
2019-02-16T03:27:54.192Z,139.57
2019-02-16T03:30:57.035Z,140.63
2019-02-16T03:33:47.507Z,143.57
2019-02-16T03:37:02.542Z,132.27
2019-02-16T03:39:35.430Z,140.07
2019-02-16T03:42:04.574Z,146.37
2019-02-16T03:44:33.698Z,147.63
2019-02-16T03:47:02.842Z,150.33
2019-02-16T03:49:31.986Z,149.07
2019-02-16T03:52:01.247Z,143.37
2019-02-16T03:54:30.386Z,140.53
2019-02-16T03:56:59.577Z,140.10
2019-02-16T03:59:28.870Z,139.97
2019-02-16T04:01:58.129Z,141.10
2019-02-16T04:04:27.355Z,129.37
2019-02-16T04:06:56.550Z,119.90
2019-02-16T04:09:25.701Z,125.90
2019-02-16T04:11:54.865Z,119.93
2019-02-16T04:14:24.031Z,114.40
2019-02-16T04:16:53.198Z,107.83
2019-02-16T04:19:22.396Z,114.13
2019-02-16T04:21:51.597Z,100.53
2019-02-16T04:24:20.736Z,101.47
2019-02-16T04:26:49.924Z,101.93
2019-02-16T04:29:19.062Z,103.23
2019-02-16T04:31:48.223Z,105.70
2019-02-16T04:34:17.494Z,107.30
2019-02-16T04:36:46.658Z,111.30
2019-02-16T04:39:15.953Z,119.20
2019-02-16T04:41:45.130Z,113.77
2019-02-16T04:44:14.274Z,116.90
2019-02-16T04:46:43.485Z,124.53
2019-02-16T04:49:12.690Z,122.17
2019-02-16T04:51:41.827Z,128.83
2019-02-16T04:54:10.945Z,125.20
2019-02-16T04:56:40.112Z,127.53
2019-02-16T04:59:09.314Z,119.67
2019-02-16T05:01:38.564Z,133.07
2019-02-16T05:04:07.702Z,121.07
2019-02-16T05:06:36.871Z,118.00
2019-02-16T05:09:07.607Z,123.90
2019-02-16T05:11:36.747Z,114.57
2019-02-16T05:14:05.886Z,124.87
2019-02-16T05:16:35.077Z,123.27
2019-02-16T05:19:04.218Z,120.10
2019-02-16T05:21:33.399Z,114.30
2019-02-16T05:24:02.645Z,119.63
2019-02-16T05:26:31.767Z,90.03
2019-02-16T05:29:00.947Z,97.27
2019-02-16T05:31:30.107Z,80.60
2019-02-16T05:33:59.226Z,93.57
2019-02-16T05:36:28.406Z,90.50
2019-02-16T05:38:57.629Z,85.50
2019-02-16T05:41:26.763Z,92.43
2019-02-16T05:43:56.054Z,91.47
2019-02-16T05:46:25.198Z,107.83
2019-02-16T05:48:54.370Z,96.20
2019-02-16T05:51:23.606Z,97.27
2019-02-16T05:53:52.762Z,101.50
2019-02-16T05:56:21.923Z,99.83
2019-02-16T05:58:51.065Z,98.13
2019-02-16T06:01:20.229Z,90.87
2019-02-16T06:03:49.354Z,89.60
2019-02-16T06:06:18.481Z,86.17
2019-02-16T06:08:47.741Z,81.03
2019-02-16T06:11:16.883Z,82.90
2019-02-16T06:13:48.910Z,79.57
2019-02-16T06:16:18.067Z,72.77
2019-02-16T06:18:48.106Z,76.33
2019-02-16T06:21:17.280Z,78.23
2019-02-16T06:23:48.110Z,81.93
2019-02-16T06:26:17.388Z,81.47
2019-02-16T06:28:47.652Z,86.03
2019-02-16T06:31:16.838Z,77.67
2019-02-16T06:33:46.110Z,87.73
2019-02-16T06:36:37.438Z,92.70
2019-02-16T06:39:06.783Z,102.73
2019-02-16T06:41:35.934Z,100.13
2019-02-16T06:44:05.183Z,102.50
2019-02-16T06:46:34.320Z,102.43
2019-02-16T06:49:03.467Z,101.17
2019-02-16T06:51:32.707Z,103.93
2019-02-16T06:54:01.855Z,111.97
2019-02-16T06:56:38.719Z,102.33
2019-02-16T06:59:07.889Z,97.40
2019-02-16T07:01:37.010Z,102.33
2019-02-16T07:04:06.170Z,102.80
2019-02-16T07:06:35.451Z,102.93
2019-02-16T07:09:05.628Z,109.30
2019-02-16T07:11:34.825Z,109.20
2019-02-16T07:14:03.996Z,121.43
2019-02-16T07:16:54.397Z,115.93
2019-02-16T07:19:29.802Z,115.37
2019-02-16T07:21:58.958Z,110.83
2019-02-16T07:24:28.123Z,125.77
2019-02-16T07:26:57.374Z,126.97
2019-02-16T07:29:26.580Z,110.17
2019-02-16T07:31:55.715Z,126.07
2019-02-16T07:34:24.887Z,112.83
2019-02-16T07:36:54.066Z,118.90
2019-02-16T07:39:23.242Z,117.00
2019-02-16T07:41:52.485Z,99.90
2019-02-16T07:44:39.444Z,104.97
2019-02-16T07:47:19.553Z,100.53
2019-02-16T07:49:57.354Z,89.30
2019-02-16T07:52:34.738Z,96.10
2019-02-16T07:55:20.707Z,95.93
2019-02-16T07:58:15.154Z,94.33
2019-02-16T08:00:56.620Z,86.10
2019-02-16T08:03:31.154Z,81.87
2019-02-16T08:06:27.906Z,76.37
2019-02-16T08:09:07.365Z,68.00
2019-02-16T08:11:58.299Z,69.73
2019-02-16T08:14:37.816Z,70.07
2019-02-16T08:17:19.806Z,77.70
2019-02-16T08:20:23.085Z,82.80
2019-02-16T08:23:10.115Z,83.53
2019-02-16T08:26:07.325Z,72.93
2019-02-16T08:28:58.499Z,70.93
2019-02-16T08:31:37.358Z,73.13
2019-02-16T08:34:37.457Z,70.00
2019-02-16T08:37:28.653Z,87.13
2019-02-16T08:40:13.211Z,78.63
2019-02-16T08:43:04.457Z,74.57
2019-02-16T08:45:46.226Z,74.93
2019-02-16T08:48:34.451Z,73.30
2019-02-16T08:51:14.120Z,71.00
2019-02-16T08:53:53.609Z,70.43
2019-02-16T08:56:57.186Z,68.77
2019-02-16T08:59:53.542Z,65.83
2019-02-16T09:02:33.969Z,63.80
2019-02-16T09:05:13.558Z,74.07
2019-02-16T09:08:04.016Z,74.50
2019-02-16T09:10:57.388Z,70.07
2019-02-16T09:13:44.445Z,75.23
2019-02-16T09:16:26.607Z,69.37
2019-02-16T09:19:14.870Z,76.70
2019-02-16T09:22:15.456Z,69.37
2019-02-16T09:24:53.754Z,61.80
2019-02-16T09:27:40.681Z,62.63
2019-02-16T09:30:20.486Z,67.63
2019-02-16T09:33:11.722Z,65.80
2019-02-16T09:36:00.046Z,68.03
2019-02-16T09:38:37.594Z,62.37
2019-02-16T09:41:24.484Z,51.33
2019-02-16T09:44:24.719Z,64.53
2019-02-16T09:47:12.914Z,57.13
2019-02-16T09:49:51.351Z,55.00
2019-02-16T09:52:26.990Z,61.93
2019-02-16T09:55:06.681Z,58.73
2019-02-16T09:58:07.279Z,62.93
2019-02-16T10:00:51.363Z,71.37
2019-02-16T10:03:35.577Z,57.10
2019-02-16T10:06:29.803Z,62.00
2019-02-16T10:09:13.414Z,61.30
2019-02-16T10:12:11.733Z,57.80
2019-02-16T10:14:58.738Z,55.83
2019-02-16T10:17:39.305Z,59.10
2019-02-16T10:20:34.286Z,56.50
2019-02-16T10:23:34.758Z,56.80
2019-02-16T10:26:10.485Z,61.13
2019-02-16T10:28:47.698Z,59.30
2019-02-16T10:31:38.994Z,59.27
2019-02-16T10:34:26.208Z,57.40
2019-02-16T10:37:03.598Z,52.67
2019-02-16T10:39:54.659Z,53.37
2019-02-16T10:42:36.762Z,51.33
2019-02-16T10:45:19.942Z,48.83
2019-02-16T10:48:07.118Z,50.97
2019-02-16T10:50:43.583Z,47.10
2019-02-16T10:53:31.989Z,47.47
2019-02-16T10:56:16.863Z,49.30
2019-02-16T10:59:14.102Z,45.17
2019-02-16T11:02:01.098Z,48.57
2019-02-16T11:04:52.234Z,42.10
2019-02-16T11:07:34.874Z,45.43
2019-02-16T11:10:14.043Z,48.17
2019-02-16T11:12:55.903Z,46.87
2019-02-16T11:15:44.416Z,46.87
2019-02-16T11:18:36.498Z,43.80
2019-02-16T11:21:33.777Z,39.50
2019-02-16T11:24:20.593Z,43.07
2019-02-16T11:27:10.606Z,43.13
2019-02-16T11:29:57.634Z,37.27
2019-02-16T11:32:44.818Z,40.13
2019-02-16T11:35:26.248Z,33.17
2019-02-16T11:38:13.636Z,34.07
2019-02-16T11:41:04.866Z,33.97
2019-02-16T11:44:03.222Z,35.03
2019-02-16T11:47:09.626Z,32.17
2019-02-16T11:49:57.802Z,29.70
2019-02-16T11:52:44.611Z,34.83
2019-02-16T11:55:24.720Z,38.57
2019-02-16T11:58:14.928Z,30.20
2019-02-16T12:01:15.506Z,26.97
2019-02-16T12:04:12.634Z,29.37
2019-02-16T12:06:52.057Z,22.57
2019-02-16T12:09:31.889Z,30.13
2019-02-16T12:12:11.758Z,31.77
2019-02-16T12:14:57.226Z,31.33
2019-02-16T12:17:44.278Z,36.17
2019-02-16T12:20:33.650Z,36.97
2019-02-16T12:23:19.220Z,39.57
2019-02-16T12:25:57.146Z,33.13
2019-02-16T12:28:34.287Z,34.37
2019-02-16T12:31:31.572Z,32.70
2019-02-16T12:34:25.650Z,29.60
2019-02-16T12:37:19.339Z,30.63
2019-02-16T12:40:03.706Z,32.33
2019-02-16T12:42:50.553Z,29.27
2019-02-16T12:45:30.239Z,36.33
2019-02-16T12:48:18.086Z,35.13
2019-02-16T12:51:18.461Z,40.30
2019-02-16T12:54:05.332Z,41.33
2019-02-16T12:56:59.726Z,35.43
2019-02-16T12:59:54.022Z,38.70
2019-02-16T13:02:54.466Z,45.10
2019-02-16T13:05:39.009Z,53.80
2019-02-16T13:08:12.224Z,47.43
2019-02-16T13:10:57.379Z,43.63
2019-02-16T13:13:44.289Z,42.70
2019-02-16T13:16:41.768Z,41.60
2019-02-16T13:19:35.945Z,42.83
2019-02-16T13:22:27.400Z,42.60
2019-02-16T13:25:02.398Z,40.90
2019-02-16T13:27:56.866Z,44.23
2019-02-16T13:30:38.301Z,37.77
2019-02-16T13:33:27.497Z,42.23
2019-02-16T13:36:18.471Z,41.03
2019-02-16T13:39:06.734Z,38.83
2019-02-16T13:42:04.382Z,41.43
2019-02-16T13:44:55.435Z,52.33
2019-02-16T13:47:46.430Z,53.90
2019-02-16T13:50:23.074Z,53.93
2019-02-16T13:53:11.291Z,46.07
2019-02-16T13:56:05.776Z,40.83
2019-02-16T13:58:47.730Z,45.37
2019-02-16T14:01:30.680Z,46.27
2019-02-16T14:04:16.642Z,56.23
2019-02-16T14:07:07.633Z,56.63
2019-02-16T14:09:58.870Z,56.67
2019-02-16T14:12:42.105Z,48.83
2019-02-16T14:15:21.170Z,48.10
2019-02-16T14:17:51.663Z,40.53
2019-02-16T14:20:21.019Z,48.13
2019-02-16T14:22:50.330Z,48.70
2019-02-16T14:25:24.982Z,51.30
2019-02-16T14:27:54.186Z,42.17
2019-02-16T14:30:23.328Z,49.57
2019-02-16T14:32:52.514Z,45.53
2019-02-16T14:35:21.690Z,51.70
2019-02-16T14:38:08.698Z,50.07
2019-02-16T14:40:37.969Z,50.00
2019-02-16T14:43:07.126Z,50.80
2019-02-16T14:45:39.092Z,47.17
2019-02-16T14:48:08.266Z,53.03
2019-02-16T14:50:37.410Z,49.67
2019-02-16T14:53:06.586Z,39.70
2019-02-16T14:55:35.818Z,45.67
2019-02-16T14:58:05.000Z,46.77
2019-02-16T15:00:34.235Z,44.37
2019-02-16T15:03:03.465Z,47.37
2019-02-16T15:05:32.613Z,42.53
2019-02-16T15:08:01.823Z,48.73
2019-02-16T15:10:31.098Z,37.73
2019-02-16T15:13:00.282Z,36.67
2019-02-16T15:15:29.555Z,36.87
2019-02-16T15:17:58.779Z,43.73
2019-02-16T15:20:28.102Z,37.37
2019-02-16T15:22:57.273Z,40.23
2019-02-16T15:25:26.502Z,42.80
2019-02-16T15:27:55.681Z,39.70
2019-02-16T15:30:24.927Z,41.93
2019-02-16T15:32:54.186Z,46.57
2019-02-16T15:35:23.371Z,41.40
2019-02-16T15:37:52.536Z,37.77
2019-02-16T15:40:21.774Z,45.97
2019-02-16T15:42:51.049Z,43.07
2019-02-16T15:45:20.219Z,45.50
2019-02-16T15:47:49.418Z,50.93
2019-02-16T15:50:18.641Z,48.80
2019-02-16T15:52:47.862Z,49.17
2019-02-16T15:55:17.027Z,53.77
2019-02-16T15:57:46.163Z,55.57
2019-02-16T16:00:23.664Z,61.70
2019-02-16T16:02:52.874Z,59.30
2019-02-16T16:05:22.021Z,67.33
2019-02-16T16:07:58.877Z,63.93
2019-02-16T16:10:34.771Z,63.40
2019-02-16T16:13:22.037Z,59.97
2019-02-16T16:16:01.517Z,69.13
2019-02-16T16:18:55.530Z,73.23
2019-02-16T16:21:49.592Z,66.60
2019-02-16T16:24:37.954Z,64.73
2019-02-16T16:27:19.638Z,71.87
2019-02-16T16:30:07.008Z,74.73
2019-02-16T16:32:58.286Z,71.23
2019-02-16T16:35:46.102Z,77.67
2019-02-16T16:38:29.771Z,74.60
2019-02-16T16:41:21.054Z,78.00
2019-02-16T16:44:08.171Z,78.70
2019-02-16T16:46:59.471Z,77.77
2019-02-16T16:50:00.098Z,85.13
2019-02-16T16:53:00.295Z,90.83
2019-02-16T16:55:47.476Z,93.13
2019-02-16T16:58:34.407Z,89.00
2019-02-16T17:01:22.619Z,83.13
2019-02-16T17:04:29.213Z,88.40
2019-02-16T17:07:20.434Z,87.47
2019-02-16T17:10:14.667Z,99.33
2019-02-16T17:12:53.069Z,100.07
2019-02-16T17:15:41.322Z,102.40
2019-02-16T17:18:28.410Z,118.47
2019-02-16T17:21:25.741Z,105.40
2019-02-16T17:24:22.943Z,109.87
2019-02-16T17:27:14.182Z,102.53
2019-02-16T17:30:01.138Z,116.93
2019-02-16T17:32:48.251Z,131.33
2019-02-16T17:35:36.553Z,129.47
2019-02-16T17:38:29.841Z,131.10
2019-02-16T17:41:14.302Z,125.53
2019-02-16T17:43:55.734Z,127.77
2019-02-16T17:46:43.534Z,138.37
2019-02-16T17:49:28.632Z,148.37
2019-02-16T17:52:19.891Z,132.10
2019-02-16T17:55:08.122Z,149.83
2019-02-16T17:58:02.483Z,145.33
2019-02-16T18:01:02.581Z,151.33
2019-02-16T18:04:08.942Z,137.90
2019-02-16T18:06:55.902Z,136.30
2019-02-16T18:09:59.229Z,117.63
2019-02-16T18:12:53.248Z,120.77
2019-02-16T18:15:41.526Z,115.00
2019-02-16T18:18:22.162Z,115.40
2019-02-16T18:21:10.391Z,119.17
2019-02-16T18:24:10.791Z,116.37
2019-02-16T18:26:56.942Z,111.10
2019-02-16T18:29:54.002Z,109.60
2019-02-16T18:32:41.036Z,107.47
2019-02-16T18:35:47.990Z,108.13
2019-02-16T18:38:48.389Z,101.30
2019-02-16T18:41:35.334Z,105.80
2019-02-16T18:44:23.939Z,110.83
2019-02-16T18:47:12.118Z,107.93
2019-02-16T18:49:59.132Z,94.50
2019-02-16T18:53:02.718Z,85.37
2019-02-16T18:55:48.092Z,79.00
2019-02-16T18:58:42.597Z,69.77
2019-02-16T19:01:30.823Z,80.00
2019-02-16T19:04:18.026Z,65.13
2019-02-16T19:07:18.481Z,68.67
2019-02-16T19:09:58.128Z,56.13
2019-02-16T19:13:01.785Z,54.17
2019-02-16T19:16:02.178Z,66.77
2019-02-16T19:18:49.702Z,69.17
2019-02-16T19:21:28.310Z,63.53
2019-02-16T19:24:15.443Z,87.40
2019-02-16T19:27:16.230Z,119.50
2019-02-16T19:29:55.086Z,133.60
2019-02-16T19:32:40.284Z,149.80
2019-02-16T19:35:19.419Z,138.50
2019-02-16T19:38:04.066Z,133.70
2019-02-16T19:40:58.319Z,134.60
2019-02-16T19:43:58.833Z,124.03
2019-02-16T19:46:47.510Z,131.17
2019-02-16T19:49:32.826Z,123.07
2019-02-16T19:52:27.474Z,117.43
2019-02-16T19:55:21.445Z,116.73
2019-02-16T19:58:10.322Z,102.57
2019-02-16T20:01:01.311Z,108.63
2019-02-16T20:04:01.587Z,111.47
2019-02-16T20:06:43.514Z,93.90
2019-02-16T20:09:27.771Z,93.53
2019-02-16T20:12:16.054Z,104.20
2019-02-16T20:14:54.023Z,94.17
2019-02-16T20:17:31.121Z,100.97
2019-02-16T20:20:37.498Z,95.10
2019-02-16T20:23:43.876Z,104.30
2019-02-16T20:26:25.781Z,101.30
2019-02-16T20:29:04.543Z,127.03
2019-02-16T20:31:51.350Z,119.57
2019-02-16T20:34:33.333Z,114.67
2019-02-16T20:37:27.540Z,105.93
2019-02-16T20:40:21.822Z,114.47
2019-02-16T20:43:13.030Z,112.77
2019-02-16T20:46:10.778Z,130.63
2019-02-16T20:48:59.014Z,129.70
2019-02-16T20:51:53.195Z,139.50
2019-02-16T20:54:40.112Z,131.00
2019-02-16T20:57:18.289Z,117.97
2019-02-16T21:00:04.426Z,115.63
2019-02-16T21:02:51.372Z,117.70
2019-02-16T21:05:31.905Z,98.60
2019-02-16T21:08:18.775Z,90.60
2019-02-16T21:11:10.259Z,95.43
2019-02-16T21:13:57.984Z,87.57
2019-02-16T21:16:55.233Z,90.83
2019-02-16T21:19:42.374Z,84.60
2019-02-16T21:22:42.922Z,96.13
2019-02-16T21:25:29.545Z,92.57
2019-02-16T21:28:24.523Z,84.93
2019-02-16T21:31:18.312Z,80.50
2019-02-16T21:34:05.086Z,78.43
2019-02-16T21:36:48.661Z,80.00
2019-02-16T21:39:35.628Z,78.17
2019-02-16T21:42:30.099Z,79.63
2019-02-16T21:45:10.169Z,76.77
2019-02-16T21:47:57.270Z,78.00
2019-02-16T21:50:49.875Z,68.80
2019-02-16T21:53:32.253Z,71.60
2019-02-16T21:56:23.198Z,66.57
2019-02-16T21:59:18.882Z,66.37
2019-02-16T22:01:55.918Z,61.43
2019-02-16T22:04:34.794Z,70.20
2019-02-16T22:07:21.781Z,65.73
2019-02-16T22:10:03.509Z,72.60
2019-02-16T22:12:52.534Z,64.00
2019-02-16T22:15:22.114Z,73.50
2019-02-16T22:17:51.252Z,76.03
2019-02-16T22:20:20.410Z,86.13
2019-02-16T22:22:49.564Z,71.90
2019-02-16T22:25:21.208Z,69.63
2019-02-16T22:27:49.662Z,71.80
2019-02-16T22:30:18.906Z,74.37
2019-02-16T22:32:48.030Z,85.87
2019-02-16T22:35:17.239Z,74.67
2019-02-16T22:37:46.533Z,78.53
2019-02-16T22:40:15.721Z,74.20
2019-02-16T22:42:44.889Z,79.20
2019-02-16T22:45:14.250Z,72.90
2019-02-16T22:47:43.394Z,76.60
2019-02-16T22:50:12.814Z,73.80
2019-02-16T22:52:42.103Z,71.97
2019-02-16T22:55:11.268Z,75.30
2019-02-16T22:57:40.439Z,65.80
2019-02-16T23:00:27.546Z,64.87
2019-02-16T23:02:56.800Z,64.00
2019-02-16T23:05:25.997Z,62.37
2019-02-16T23:07:55.227Z,61.03
2019-02-16T23:10:24.383Z,60.43
2019-02-16T23:12:53.641Z,53.53
2019-02-16T23:15:22.806Z,59.70
2019-02-16T23:17:51.974Z,55.57
2019-02-16T23:20:21.194Z,55.27
2019-02-16T23:22:50.478Z,59.73
2019-02-16T23:25:19.671Z,55.13
2019-02-16T23:27:48.858Z,53.70
2019-02-16T23:30:18.003Z,51.87
2019-02-16T23:32:47.234Z,56.13
2019-02-16T23:35:16.418Z,56.50
2019-02-16T23:37:45.546Z,52.43
2019-02-16T23:40:14.669Z,56.77
2019-02-16T23:42:43.926Z,53.13
2019-02-16T23:45:13.146Z,56.00
2019-02-16T23:47:42.318Z,58.37
2019-02-16T23:50:11.470Z,56.93
2019-02-16T23:52:40.682Z,54.80
2019-02-16T23:55:10.186Z,58.70
2019-02-16T23:57:39.318Z,60.47
